Terminal Aerodrome Forecast
Issued by NWS Wilmington, OH

Current Version | Previous Version | Graphics & Text | Print | Product List | Glossary On
Versions: 1 2 3 4 5 6 7 8 9 10 11 12 13 14 15 16 17 18 19 20 21 22 23 24 25 26 27 28 29 30
000
FTUS41 KILN 050200 AAB
TAFCVG
TAF AMD
KCVG 050206Z 0502/0606 32015KT 3/4SM -SN BR OVC008
     FM050400 36010KT 1SM -SN BR OVC012
     FM050900 36010KT 4SM -SN OVC022
     FM051200 34010KT P6SM BKN025
     FM060000 35003KT P6SM BKN025=

USA.gov is the U.S. government's official web portal to all federal, state and local government web resources and services.